createdAt,value
2023-05-05T00:02:21.327Z,5.70
2023-05-05T00:04:49.051Z,5.30
2023-05-05T00:07:16.842Z,5.30
2023-05-05T00:09:44.713Z,4.60
2023-05-05T00:12:12.494Z,5.20
2023-05-05T00:14:40.266Z,4.87
2023-05-05T00:17:07.899Z,5.67
2023-05-05T00:19:35.711Z,4.77
2023-05-05T00:22:03.438Z,5.47
2023-05-05T00:24:31.494Z,6.03
2023-05-05T00:26:59.303Z,6.00
2023-05-05T00:29:27.151Z,5.40
2023-05-05T00:31:54.814Z,5.57
2023-05-05T00:34:23.028Z,6.00
2023-05-05T00:36:50.694Z,5.10
2023-05-05T00:39:18.395Z,5.07
2023-05-05T00:41:46.264Z,5.30
2023-05-05T00:44:13.985Z,5.50
2023-05-05T00:46:44.271Z,5.17
2023-05-05T00:49:12.362Z,5.03
2023-05-05T00:51:40.214Z,5.23
2023-05-05T00:54:08.246Z,5.60
2023-05-05T00:56:36.934Z,5.70
2023-05-05T00:59:04.660Z,5.33
2023-05-05T01:01:32.878Z,5.00
2023-05-05T01:04:01.633Z,5.23
2023-05-05T01:07:41.168Z,5.30
2023-05-05T01:10:50.566Z,5.20
2023-05-05T01:13:50.279Z,6.10
2023-05-05T01:16:33.562Z,5.73
2023-05-05T01:19:26.279Z,5.73
2023-05-05T01:22:04.020Z,5.43
2023-05-05T01:24:57.069Z,5.63
2023-05-05T01:28:48.347Z,5.00
2023-05-05T01:32:01.584Z,5.97
2023-05-05T01:35:04.588Z,5.90
2023-05-05T01:38:03.311Z,6.00
2023-05-05T01:40:45.131Z,5.43
2023-05-05T01:43:20.262Z,5.10
2023-05-05T01:45:51.740Z,5.70
2023-05-05T01:48:23.116Z,5.20
2023-05-05T01:50:53.443Z,4.30
2023-05-05T01:53:25.798Z,5.27
2023-05-05T01:55:57.039Z,4.90
2023-05-05T01:58:28.752Z,4.80
2023-05-05T02:00:59.361Z,5.10
2023-05-05T02:03:32.237Z,5.37
2023-05-05T02:06:03.848Z,4.60
2023-05-05T02:08:34.931Z,5.33
2023-05-05T02:11:04.693Z,5.17
2023-05-05T02:13:33.760Z,5.20
2023-05-05T02:16:06.379Z,4.70
2023-05-05T02:18:36.164Z,5.03
2023-05-05T02:21:05.767Z,4.80
2023-05-05T02:23:33.915Z,5.97
2023-05-05T02:26:09.612Z,6.53
2023-05-05T02:29:05.778Z,7.23
2023-05-05T02:31:46.896Z,6.40
2023-05-05T02:34:28.288Z,7.40
2023-05-05T02:37:05.443Z,7.90
2023-05-05T02:40:04.659Z,6.73
2023-05-05T02:42:47.082Z,7.80
2023-05-05T02:45:22.912Z,8.83
2023-05-05T02:47:51.117Z,10.37
2023-05-05T02:50:21.083Z,9.77
2023-05-05T02:53:08.210Z,9.07
2023-05-05T02:56:38.406Z,9.17
2023-05-05T02:59:31.993Z,10.77
2023-05-05T03:02:46.933Z,10.37
2023-05-05T03:05:51.651Z,11.33
2023-05-05T03:08:54.993Z,11.70
2023-05-05T03:12:05.875Z,12.10
2023-05-05T03:14:47.281Z,12.37
2023-05-05T03:17:21.722Z,11.20
2023-05-05T03:19:51.971Z,12.87
2023-05-05T03:22:20.580Z,13.13
2023-05-05T03:24:52.190Z,14.10
2023-05-05T03:27:23.987Z,12.70
2023-05-05T03:29:52.946Z,13.87
2023-05-05T03:32:23.872Z,12.57
2023-05-05T03:34:54.775Z,12.40
2023-05-05T03:37:27.630Z,13.97
2023-05-05T03:39:55.600Z,15.40
2023-05-05T03:42:23.525Z,14.73
2023-05-05T03:44:53.967Z,13.63
2023-05-05T03:47:24.814Z,13.47
2023-05-05T03:49:54.509Z,13.33
2023-05-05T03:52:22.489Z,14.77
2023-05-05T03:54:50.126Z,14.10
2023-05-05T03:57:19.170Z,14.07
2023-05-05T03:59:46.930Z,13.73
2023-05-05T04:02:16.046Z,13.90
2023-05-05T04:04:45.568Z,15.10
2023-05-05T04:07:13.471Z,15.77
2023-05-05T04:09:44.637Z,14.10
2023-05-05T04:12:14.217Z,14.47
2023-05-05T04:14:42.098Z,16.67
2023-05-05T04:17:11.115Z,15.27
2023-05-05T04:19:39.185Z,13.97
2023-05-05T04:22:09.157Z,15.33
2023-05-05T04:24:37.370Z,14.60
2023-05-05T04:27:05.522Z,14.20
2023-05-05T04:29:33.810Z,15.30
2023-05-05T04:32:02.198Z,15.00
2023-05-05T04:34:30.907Z,14.63
2023-05-05T04:36:58.846Z,15.87
2023-05-05T04:39:26.578Z,16.07
2023-05-05T04:41:55.286Z,16.20
2023-05-05T04:44:23.108Z,16.17
2023-05-05T04:46:51.038Z,16.00
2023-05-05T04:49:18.942Z,17.97
2023-05-05T04:51:46.907Z,19.07
2023-05-05T04:54:14.902Z,18.10
2023-05-05T04:56:43.647Z,18.53
2023-05-05T04:59:11.446Z,17.43
2023-05-05T05:01:39.330Z,18.27
2023-05-05T05:04:08.288Z,19.40
2023-05-05T05:06:36.723Z,18.87
2023-05-05T05:09:04.754Z,17.40
2023-05-05T05:11:33.005Z,17.10
2023-05-05T05:14:02.470Z,15.90
2023-05-05T05:16:30.862Z,18.60
2023-05-05T05:18:59.096Z,16.77
2023-05-05T05:21:28.790Z,15.77
2023-05-05T05:23:56.495Z,14.80
2023-05-05T05:26:25.353Z,15.47
2023-05-05T05:28:56.274Z,17.00
2023-05-05T05:31:25.087Z,15.73
2023-05-05T05:33:53.016Z,16.47
2023-05-05T05:36:20.892Z,16.60
2023-05-05T05:38:48.627Z,15.87
2023-05-05T05:41:17.101Z,17.00
2023-05-05T05:43:44.948Z,16.73
2023-05-05T05:46:12.859Z,16.13
2023-05-05T05:48:42.368Z,15.90
2023-05-05T05:51:10.420Z,16.67
2023-05-05T05:53:38.596Z,15.30
2023-05-05T05:56:07.895Z,13.63
2023-05-05T05:58:35.868Z,14.43
2023-05-05T06:01:05.137Z,14.53
2023-05-05T06:03:33.826Z,13.47
2023-05-05T06:06:01.972Z,13.67
2023-05-05T06:08:30.176Z,12.73
2023-05-05T06:11:00.676Z,12.50
2023-05-05T06:13:28.484Z,13.10
2023-05-05T06:15:56.190Z,13.07
2023-05-05T06:18:24.249Z,9.50
2023-05-05T06:20:52.936Z,9.13
2023-05-05T06:23:24.111Z,9.60
2023-05-05T06:25:57.053Z,8.60
2023-05-05T06:28:25.108Z,9.47
2023-05-05T06:30:53.289Z,7.63
2023-05-05T06:33:21.341Z,7.20
2023-05-05T06:35:49.643Z,8.07
2023-05-05T06:38:17.336Z,7.80
2023-05-05T06:40:45.086Z,8.20
2023-05-05T06:43:12.727Z,7.50
2023-05-05T06:45:46.323Z,8.27
2023-05-05T06:48:14.280Z,8.27
2023-05-05T06:50:42.452Z,8.53
2023-05-05T06:53:10.370Z,9.23
2023-05-05T06:55:38.102Z,8.53
2023-05-05T06:58:05.927Z,8.40
2023-05-05T07:00:33.737Z,8.93
2023-05-05T07:03:01.796Z,8.67
2023-05-05T07:05:29.499Z,8.07
2023-05-05T07:07:58.748Z,7.87
2023-05-05T07:10:28.389Z,8.33
2023-05-05T07:12:56.724Z,8.93
2023-05-05T07:15:29.281Z,8.77
2023-05-05T07:17:58.439Z,8.10
2023-05-05T07:20:26.757Z,8.03
2023-05-05T07:22:54.730Z,8.53
2023-05-05T07:25:22.512Z,7.90
2023-05-05T07:27:51.065Z,9.60
2023-05-05T07:30:19.482Z,8.87
2023-05-05T07:32:47.816Z,8.70
2023-05-05T07:35:15.974Z,9.60
2023-05-05T07:37:46.172Z,9.60
2023-05-05T07:40:14.631Z,10.07
2023-05-05T07:42:42.529Z,9.90
2023-05-05T07:45:11.485Z,9.70
2023-05-05T07:47:40.645Z,11.20
2023-05-05T07:50:09.849Z,9.87
2023-05-05T07:52:48.402Z,10.73
2023-05-05T07:55:21.710Z,9.40
2023-05-05T07:57:50.400Z,9.67
2023-05-05T08:00:19.688Z,9.70
2023-05-05T08:02:48.169Z,10.27
2023-05-05T08:05:16.861Z,11.03
2023-05-05T08:07:44.628Z,9.53
2023-05-05T08:10:13.421Z,10.27
2023-05-05T08:12:42.243Z,9.50
2023-05-05T08:15:11.079Z,8.10
2023-05-05T08:17:53.116Z,9.10
2023-05-05T08:20:22.216Z,9.60
2023-05-05T08:22:50.683Z,8.93
2023-05-05T08:25:18.505Z,6.47
2023-05-05T08:27:46.340Z,9.30
2023-05-05T08:30:16.655Z,7.40
2023-05-05T08:32:44.612Z,7.70
2023-05-05T08:35:12.843Z,6.20
2023-05-05T08:37:40.729Z,5.83
2023-05-05T08:40:16.566Z,6.30
2023-05-05T08:42:47.417Z,7.17
2023-05-05T08:45:16.099Z,6.80
2023-05-05T08:47:44.367Z,6.67
2023-05-05T08:50:13.066Z,6.10
2023-05-05T08:52:45.272Z,5.70
2023-05-05T08:55:33.421Z,7.00
2023-05-05T08:58:05.887Z,6.23
2023-05-05T09:00:36.283Z,6.50
2023-05-05T09:03:06.149Z,6.40
2023-05-05T09:05:34.100Z,6.33
2023-05-05T09:08:02.460Z,6.53
2023-05-05T09:10:31.220Z,5.60
2023-05-05T09:12:59.234Z,6.50
2023-05-05T09:15:28.550Z,6.40
2023-05-05T09:17:58.523Z,4.60
2023-05-05T09:20:37.773Z,5.90
2023-05-05T09:23:20.006Z,5.80
2023-05-05T09:26:05.465Z,6.70
2023-05-05T09:28:33.970Z,6.43
2023-05-05T09:31:16.351Z,5.97
2023-05-05T09:33:44.861Z,5.23
2023-05-05T09:36:12.669Z,5.50
2023-05-05T09:38:40.498Z,5.10
2023-05-05T09:41:08.376Z,4.97
2023-05-05T09:43:52.772Z,5.53
2023-05-05T09:46:20.792Z,5.17
2023-05-05T09:48:48.572Z,5.03
2023-05-05T09:51:16.664Z,5.00
2023-05-05T09:53:44.408Z,5.30
2023-05-05T09:56:12.611Z,4.80
2023-05-05T09:58:41.944Z,3.90
2023-05-05T10:01:24.124Z,3.97
2023-05-05T10:03:53.027Z,4.90
2023-05-05T10:06:39.171Z,3.97
2023-05-05T10:09:07.117Z,3.47
2023-05-05T10:11:36.576Z,2.80
2023-05-05T10:14:09.123Z,2.93
2023-05-05T10:16:44.048Z,2.87
2023-05-05T10:19:15.306Z,3.63
2023-05-05T10:21:54.771Z,4.37
2023-05-05T10:24:40.930Z,3.77
2023-05-05T10:27:24.666Z,3.23
2023-05-05T10:30:08.074Z,3.20
2023-05-05T10:33:07.896Z,3.13
2023-05-05T10:35:50.055Z,2.73
2023-05-05T10:38:20.079Z,3.53
2023-05-05T10:40:49.718Z,3.60
2023-05-05T10:43:18.669Z,3.73
2023-05-05T10:45:47.018Z,3.60
2023-05-05T10:48:56.819Z,3.20
2023-05-05T10:51:54.540Z,3.30
2023-05-05T10:54:58.148Z,3.50
2023-05-05T10:57:32.447Z,3.90
2023-05-05T11:00:00.420Z,3.53
2023-05-05T11:02:31.602Z,4.60
2023-05-05T11:05:20.818Z,4.83
2023-05-05T11:07:52.521Z,4.00
2023-05-05T11:10:23.101Z,3.33
2023-05-05T11:13:03.204Z,3.40
2023-05-05T11:15:31.054Z,3.70
2023-05-05T11:18:05.041Z,3.20
2023-05-05T11:20:39.690Z,3.03
2023-05-05T11:23:08.178Z,3.27
2023-05-05T11:25:42.256Z,4.10
2023-05-05T11:28:25.690Z,3.33
2023-05-05T11:30:59.473Z,3.00
2023-05-05T11:33:38.430Z,3.53
2023-05-05T11:36:09.701Z,4.53
2023-05-05T11:39:26.367Z,4.90
2023-05-05T11:42:32.992Z,3.80
2023-05-05T11:45:01.310Z,4.03
2023-05-05T11:47:32.398Z,3.87
2023-05-05T11:50:17.493Z,4.00
2023-05-05T11:52:49.769Z,3.60
2023-05-05T11:55:23.144Z,4.63
2023-05-05T11:57:59.716Z,4.83
2023-05-05T12:00:35.084Z,4.40
2023-05-05T12:03:04.473Z,6.93
2023-05-05T12:05:36.482Z,6.73
2023-05-05T12:08:07.086Z,7.03
2023-05-05T12:10:35.231Z,6.03
2023-05-05T12:13:03.026Z,6.10
2023-05-05T12:15:34.608Z,6.50
2023-05-05T12:18:06.479Z,6.10
2023-05-05T12:20:36.691Z,6.73
2023-05-05T12:23:05.368Z,5.97
2023-05-05T12:25:39.227Z,6.23
2023-05-05T12:28:09.798Z,5.43
2023-05-05T12:30:37.927Z,5.60
2023-05-05T12:33:08.849Z,4.70
2023-05-05T12:35:37.324Z,5.90
2023-05-05T12:38:06.081Z,8.37
2023-05-05T12:40:53.112Z,7.70
2023-05-05T12:43:38.879Z,8.23
2023-05-05T12:46:12.469Z,7.00
2023-05-05T12:48:47.973Z,7.53
2023-05-05T12:51:23.710Z,7.53
2023-05-05T12:54:10.569Z,6.20
2023-05-05T12:56:46.518Z,7.10
2023-05-05T12:59:23.322Z,6.40
2023-05-05T13:02:01.597Z,7.80
2023-05-05T13:04:30.140Z,6.23
2023-05-05T13:07:17.085Z,6.40
2023-05-05T13:09:46.388Z,5.93
2023-05-05T13:12:15.798Z,6.63
2023-05-05T13:14:44.477Z,5.67
2023-05-05T13:17:14.769Z,6.17
2023-05-05T13:19:46.181Z,6.83
2023-05-05T13:22:14.847Z,5.67
2023-05-05T13:24:51.668Z,6.43
2023-05-05T13:27:21.395Z,6.90
2023-05-05T13:29:49.354Z,6.63
2023-05-05T13:32:17.004Z,5.90
2023-05-05T13:34:44.805Z,4.37
2023-05-05T13:37:12.761Z,4.37
2023-05-05T13:39:40.838Z,4.33
2023-05-05T13:42:08.908Z,4.90
2023-05-05T13:44:36.789Z,4.40
2023-05-05T13:47:04.724Z,5.60
2023-05-05T13:49:32.482Z,4.83
2023-05-05T13:52:00.323Z,3.60
2023-05-05T13:54:28.224Z,2.80
2023-05-05T13:56:56.123Z,2.60
2023-05-05T13:59:25.959Z,2.20
2023-05-05T14:01:57.313Z,1.90
2023-05-05T14:04:25.781Z,1.97
2023-05-05T14:07:00.388Z,1.77
2023-05-05T14:09:31.253Z,2.03
2023-05-05T14:11:59.185Z,3.30
2023-05-05T14:14:26.973Z,5.10
2023-05-05T14:16:55.242Z,5.30
2023-05-05T14:19:23.456Z,5.07
2023-05-05T14:21:51.298Z,5.27
2023-05-05T14:24:19.028Z,4.73
2023-05-05T14:26:47.090Z,4.60
2023-05-05T14:29:14.783Z,5.77
2023-05-05T14:31:42.864Z,5.73
2023-05-05T14:34:10.741Z,5.30
2023-05-05T14:36:38.653Z,5.50
2023-05-05T14:39:06.468Z,7.07
2023-05-05T14:41:34.362Z,7.60
2023-05-05T14:44:02.177Z,8.60
2023-05-05T14:46:31.490Z,8.30
2023-05-05T14:48:59.611Z,9.30
2023-05-05T14:51:27.517Z,9.13
2023-05-05T14:53:55.341Z,9.00
2023-05-05T14:56:24.600Z,9.17
2023-05-05T14:58:53.486Z,7.17
2023-05-05T15:01:21.933Z,5.90
2023-05-05T15:03:49.975Z,4.97
2023-05-05T15:06:17.801Z,5.57
2023-05-05T15:08:46.079Z,5.43
2023-05-05T15:11:13.993Z,5.37
2023-05-05T15:13:41.899Z,4.20
2023-05-05T15:16:09.868Z,3.40
2023-05-05T15:18:38.505Z,2.77
2023-05-05T15:21:06.573Z,3.50
2023-05-05T15:23:34.845Z,2.43
2023-05-05T15:26:03.001Z,3.17
2023-05-05T15:28:31.883Z,4.13
2023-05-05T15:31:03.282Z,4.33
2023-05-05T15:33:31.144Z,3.70
2023-05-05T15:35:58.991Z,3.60
2023-05-05T15:38:29.100Z,3.50
2023-05-05T15:40:57.313Z,3.10
2023-05-05T15:43:25.215Z,3.10
2023-05-05T15:45:55.047Z,3.27
2023-05-05T15:48:22.848Z,2.43
2023-05-05T15:50:50.508Z,2.67
2023-05-05T15:53:18.332Z,2.40
2023-05-05T15:55:46.356Z,2.50
2023-05-05T15:58:14.200Z,2.70
2023-05-05T16:00:42.008Z,2.00
2023-05-05T16:03:09.777Z,2.60
2023-05-05T16:05:37.580Z,2.20
2023-05-05T16:08:09.753Z,2.10
2023-05-05T16:10:40.756Z,1.80
2023-05-05T16:13:08.540Z,1.83
2023-05-05T16:15:36.262Z,2.10
2023-05-05T16:18:04.267Z,1.80
2023-05-05T16:20:32.074Z,2.20
2023-05-05T16:22:59.744Z,2.00
2023-05-05T16:25:27.762Z,1.70
2023-05-05T16:27:57.633Z,2.00
2023-05-05T16:30:25.488Z,2.07
2023-05-05T16:32:54.755Z,2.03
2023-05-05T16:35:23.155Z,2.40
2023-05-05T16:37:50.803Z,2.10
2023-05-05T16:40:19.250Z,2.10
2023-05-05T16:42:49.457Z,1.80
2023-05-05T16:45:17.685Z,1.60
2023-05-05T16:47:45.928Z,1.20
2023-05-05T16:50:14.402Z,1.97
2023-05-05T16:52:42.764Z,1.73
2023-05-05T16:55:10.721Z,3.57
2023-05-05T16:57:41.129Z,2.30
2023-05-05T17:00:10.973Z,2.27
2023-05-05T17:02:38.870Z,2.50
2023-05-05T17:05:07.677Z,2.00
2023-05-05T17:07:35.611Z,2.23
2023-05-05T17:10:15.621Z,3.40
2023-05-05T17:12:43.629Z,4.20
2023-05-05T17:15:17.706Z,4.80
2023-05-05T17:17:45.545Z,4.60
2023-05-05T17:20:13.652Z,3.90
2023-05-05T17:22:41.433Z,3.93
2023-05-05T17:25:10.370Z,3.80
2023-05-05T17:27:38.668Z,7.70
2023-05-05T17:30:08.324Z,6.30
2023-05-05T17:32:36.333Z,5.80
2023-05-05T17:35:04.406Z,5.93
2023-05-05T17:37:32.545Z,4.63
2023-05-05T17:40:00.406Z,4.90
2023-05-05T17:42:30.399Z,4.80
2023-05-05T17:44:58.275Z,4.10
2023-05-05T17:47:26.939Z,6.27
2023-05-05T17:49:57.236Z,8.70
2023-05-05T17:52:26.351Z,6.90
2023-05-05T17:54:54.214Z,4.73
2023-05-05T17:57:22.946Z,4.43
2023-05-05T17:59:53.694Z,6.50
2023-05-05T18:02:25.190Z,6.03
2023-05-05T18:04:53.086Z,4.20
2023-05-05T18:07:20.709Z,4.63
2023-05-05T18:09:49.493Z,5.07
2023-05-05T18:12:17.540Z,11.77
2023-05-05T18:14:45.361Z,4.57
2023-05-05T18:17:13.057Z,4.37
2023-05-05T18:19:46.614Z,5.37
2023-05-05T18:22:16.642Z,4.60
2023-05-05T18:24:44.520Z,5.90
2023-05-05T18:27:12.401Z,7.90
2023-05-05T18:29:40.305Z,7.77
2023-05-05T18:32:08.254Z,6.90
2023-05-05T18:34:36.140Z,5.13
2023-05-05T18:37:03.874Z,30.07
2023-05-05T18:39:32.548Z,11.23
2023-05-05T18:42:00.630Z,6.20
2023-05-05T18:44:28.386Z,6.27
2023-05-05T18:46:56.559Z,10.47
2023-05-05T18:49:25.059Z,7.10
2023-05-05T18:51:53.851Z,13.40
2023-05-05T18:54:22.144Z,6.73
2023-05-05T18:56:50.160Z,8.30
2023-05-05T18:59:17.937Z,9.70
2023-05-05T19:01:45.713Z,9.40
2023-05-05T19:04:22.843Z,10.07
2023-05-05T19:06:58.620Z,9.03
2023-05-05T19:09:26.464Z,9.43
2023-05-05T19:11:54.361Z,10.83
2023-05-05T19:14:23.557Z,10.40
2023-05-05T19:16:53.060Z,11.27
2023-05-05T19:19:20.920Z,10.23
2023-05-05T19:21:49.065Z,11.83
2023-05-05T19:24:17.352Z,11.03
2023-05-05T19:26:51.681Z,11.83
2023-05-05T19:29:23.175Z,11.23
2023-05-05T19:31:55.060Z,12.60
2023-05-05T19:34:28.368Z,15.10
2023-05-05T19:37:01.441Z,13.93
2023-05-05T19:39:29.899Z,14.53
2023-05-05T19:41:57.585Z,14.63
2023-05-05T19:44:25.431Z,13.93
2023-05-05T19:46:53.818Z,15.50
2023-05-05T19:49:21.717Z,15.97
2023-05-05T19:51:50.465Z,17.03
2023-05-05T19:54:18.666Z,15.60
2023-05-05T19:56:46.429Z,14.47
2023-05-05T19:59:14.086Z,14.93
2023-05-05T20:01:42.035Z,16.10
2023-05-05T20:04:10.056Z,16.07
2023-05-05T20:06:38.048Z,16.80
2023-05-05T20:09:06.397Z,16.57
2023-05-05T20:11:34.679Z,14.20
2023-05-05T20:14:02.718Z,15.20
2023-05-05T20:16:30.802Z,16.00
2023-05-05T20:19:02.052Z,15.83
2023-05-05T20:21:33.680Z,17.90
2023-05-05T20:24:05.753Z,18.00
2023-05-05T20:26:38.280Z,18.77
2023-05-05T20:29:08.848Z,16.43
2023-05-05T20:31:40.049Z,16.50
2023-05-05T20:34:08.568Z,16.50
2023-05-05T20:36:38.418Z,18.67
2023-05-05T20:39:08.942Z,18.83
2023-05-05T20:41:38.053Z,18.23
2023-05-05T20:44:06.032Z,17.87
2023-05-05T20:46:33.843Z,20.10
2023-05-05T20:49:01.996Z,19.80
2023-05-05T20:51:34.334Z,22.07
2023-05-05T20:54:03.364Z,21.90
2023-05-05T20:56:31.026Z,22.60
2023-05-05T20:58:58.835Z,22.70
2023-05-05T21:01:26.729Z,21.80
2023-05-05T21:03:54.652Z,21.70
2023-05-05T21:06:22.489Z,24.03
2023-05-05T21:08:50.318Z,23.83
2023-05-05T21:11:18.087Z,23.63
2023-05-05T21:13:45.889Z,21.13
2023-05-05T21:16:14.272Z,21.90
2023-05-05T21:18:46.767Z,22.67
2023-05-05T21:21:14.499Z,21.10
2023-05-05T21:23:42.335Z,20.60
2023-05-05T21:26:10.581Z,21.83
2023-05-05T21:28:38.255Z,22.20
2023-05-05T21:31:21.284Z,24.47
2023-05-05T21:33:50.216Z,23.40
2023-05-05T21:36:19.367Z,23.77
2023-05-05T21:38:47.263Z,24.90
2023-05-05T21:41:15.052Z,24.20
2023-05-05T21:43:43.429Z,23.70
2023-05-05T21:46:11.269Z,24.57
2023-05-05T21:48:40.056Z,23.47
2023-05-05T21:51:09.027Z,24.13
2023-05-05T21:53:37.860Z,27.27
2023-05-05T21:56:10.379Z,26.57
2023-05-05T21:58:38.206Z,26.37
2023-05-05T22:01:05.958Z,27.27
2023-05-05T22:03:35.369Z,26.33
2023-05-05T22:06:04.032Z,26.03
2023-05-05T22:08:31.836Z,25.13
2023-05-05T22:10:59.509Z,24.73
2023-05-05T22:13:27.326Z,26.57
2023-05-05T22:15:55.189Z,26.40
2023-05-05T22:18:27.014Z,26.43
2023-05-05T22:20:55.646Z,25.57
2023-05-05T22:23:23.378Z,24.83
2023-05-05T22:25:51.175Z,28.30
2023-05-05T22:28:18.917Z,28.70
2023-05-05T22:30:46.632Z,31.37
2023-05-05T22:33:14.817Z,28.40
2023-05-05T22:35:42.975Z,28.47
2023-05-05T22:38:10.685Z,27.33
2023-05-05T22:40:38.750Z,26.57
2023-05-05T22:43:06.402Z,28.90
2023-05-05T22:45:34.320Z,25.20
2023-05-05T22:48:02.629Z,24.67
2023-05-05T22:50:30.520Z,24.37
2023-05-05T22:52:58.264Z,27.57
2023-05-05T22:55:26.127Z,26.13
2023-05-05T22:57:53.976Z,26.23
2023-05-05T23:00:21.771Z,28.47
2023-05-05T23:02:49.451Z,24.70
2023-05-05T23:05:17.305Z,26.47
2023-05-05T23:07:45.110Z,25.33
2023-05-05T23:10:12.861Z,25.97
2023-05-05T23:12:40.707Z,24.47
2023-05-05T23:15:10.144Z,27.33
2023-05-05T23:17:38.164Z,29.90
2023-05-05T23:20:09.712Z,28.90
2023-05-05T23:22:37.537Z,30.33
2023-05-05T23:25:07.414Z,33.17
2023-05-05T23:27:35.420Z,33.90
2023-05-05T23:30:03.216Z,29.80
2023-05-05T23:32:31.013Z,29.60
2023-05-05T23:34:58.673Z,31.53
2023-05-05T23:37:26.363Z,29.97
2023-05-05T23:39:54.056Z,30.73
2023-05-05T23:42:21.728Z,29.80
2023-05-05T23:44:49.389Z,29.87
2023-05-05T23:47:17.119Z,32.37
2023-05-05T23:49:44.896Z,30.30
2023-05-05T23:52:13.372Z,31.70
2023-05-05T23:54:41.409Z,30.30
2023-05-05T23:57:09.024Z,33.13
2023-05-05T23:59:36.676Z,33.40
